createdAt,value
2022-11-15T00:01:08.469Z,100406.84
2022-11-15T00:09:49.856Z,100401.59
2022-11-15T00:18:32.046Z,100398.52
2022-11-15T00:27:13.969Z,100388.19
2022-11-15T00:36:01.073Z,100374.59
2022-11-15T00:44:42.334Z,100361.36
2022-11-15T00:53:23.806Z,100351.77
2022-11-15T01:02:05.332Z,100334.79
2022-11-15T01:10:46.895Z,100320.27
2022-11-15T01:19:28.340Z,100311.23
2022-11-15T01:28:09.974Z,100298.33
2022-11-15T01:36:51.552Z,100286.77
2022-11-15T01:45:33.193Z,100277.66
2022-11-15T01:54:18.946Z,100264.45
2022-11-15T02:03:00.136Z,100249.27
2022-11-15T02:11:43.534Z,100237.91
2022-11-15T02:20:51.071Z,100228.02
2022-11-15T02:30:01.649Z,100231.25
2022-11-15T02:38:52.154Z,100219.50
2022-11-15T02:47:39.097Z,100216.08
2022-11-15T02:56:20.676Z,100201.55
2022-11-15T03:05:14.164Z,100195.77
2022-11-15T03:14:13.375Z,100191.77
2022-11-15T03:23:01.212Z,100181.98
2022-11-15T03:31:51.354Z,100177.89
2022-11-15T03:40:37.695Z,100169.77
2022-11-15T03:49:36.658Z,100153.86
2022-11-15T03:58:18.037Z,100143.20
2022-11-15T04:06:59.851Z,100134.87
2022-11-15T04:15:41.169Z,100116.23
2022-11-15T04:24:22.690Z,100106.14
2022-11-15T04:33:04.762Z,100090.95
2022-11-15T04:41:46.130Z,100085.02
2022-11-15T04:50:27.607Z,100086.95
2022-11-15T04:59:09.187Z,100071.73
2022-11-15T05:07:50.819Z,100071.30
2022-11-15T05:16:32.716Z,100070.42
2022-11-15T05:25:14.028Z,100060.81
2022-11-15T05:33:57.662Z,100054.10
2022-11-15T05:42:39.421Z,100049.73
2022-11-15T05:51:23.719Z,100038.49
2022-11-15T06:00:10.441Z,100036.85
2022-11-15T06:08:52.325Z,100032.52
2022-11-15T06:17:33.947Z,100047.04
2022-11-15T06:26:15.522Z,100054.08
2022-11-15T06:34:57.127Z,100064.45
2022-11-15T06:43:39.285Z,100063.24
2022-11-15T06:52:20.773Z,100063.75
2022-11-15T07:01:05.066Z,100061.45
2022-11-15T07:09:46.721Z,100070.36
2022-11-15T07:18:28.579Z,100071.55
2022-11-15T07:27:10.107Z,100070.98
2022-11-15T07:35:51.568Z,100066.15
2022-11-15T07:44:33.142Z,100061.04
2022-11-15T07:53:15.002Z,100056.23
2022-11-15T08:01:56.618Z,100050.84
2022-11-15T08:10:40.726Z,100041.65
2022-11-15T08:19:22.837Z,100032.66
2022-11-15T08:28:07.104Z,100021.97
2022-11-15T08:36:48.849Z,100016.23
2022-11-15T08:45:31.777Z,100012.15
2022-11-15T08:54:13.374Z,100013.69
2022-11-15T09:02:55.240Z,100013.16
2022-11-15T09:11:36.586Z,100008.55
2022-11-15T09:20:18.111Z,99997.70
2022-11-15T09:28:59.698Z,99988.02
2022-11-15T09:37:41.326Z,99980.25
2022-11-15T09:47:07.894Z,99972.64
2022-11-15T09:56:06.694Z,99954.77
2022-11-15T10:18:05.096Z,99911.81
2022-11-15T10:26:29.413Z,99899.55
2022-11-15T10:34:52.680Z,99890.52
2022-11-15T10:43:20.355Z,99880.20
2022-11-15T10:51:55.961Z,99883.38
2022-11-15T11:00:22.047Z,99867.86
2022-11-15T11:08:57.827Z,99858.68
2022-11-15T11:17:36.425Z,99857.77
2022-11-15T11:26:47.593Z,99854.02
2022-11-15T11:35:27.269Z,99832.77
2022-11-15T11:44:00.702Z,99818.50
2022-11-15T11:52:40.815Z,99819.86
2022-11-15T12:01:26.129Z,99815.08
2022-11-15T12:10:00.159Z,99807.15
2022-11-15T12:18:24.263Z,99794.95
2022-11-15T12:26:57.534Z,99787.27
2022-11-15T12:35:41.235Z,99778.32
2022-11-15T12:44:05.560Z,99775.05
2022-11-15T12:52:28.647Z,99759.94
2022-11-15T13:00:52.018Z,99749.00
2022-11-15T13:09:33.675Z,99741.98
2022-11-15T13:17:57.913Z,99728.65
2022-11-15T13:26:22.684Z,99732.09
2022-11-15T13:34:52.733Z,99728.30
2022-11-15T13:43:29.542Z,99728.52
2022-11-15T13:51:56.059Z,99721.73
2022-11-15T14:00:35.744Z,99713.19
2022-11-15T14:09:03.935Z,99704.45
2022-11-15T14:17:29.943Z,99705.17
2022-11-15T14:25:58.243Z,99699.73
2022-11-15T14:34:23.383Z,99696.61
2022-11-15T14:42:48.244Z,99689.92
2022-11-15T14:51:14.235Z,99675.14
2022-11-15T14:59:39.410Z,99674.51
2022-11-15T15:08:03.292Z,99677.59
2022-11-15T15:16:26.324Z,99673.11
2022-11-15T15:24:50.423Z,99666.42
2022-11-15T15:33:14.925Z,99656.79
2022-11-15T15:41:37.789Z,99659.42
2022-11-15T15:50:01.042Z,99670.06
2022-11-15T15:58:25.856Z,99667.89
2022-11-15T16:06:51.670Z,99663.71
2022-11-15T16:15:15.075Z,99666.63
2022-11-15T16:23:38.843Z,99658.70
2022-11-15T16:32:01.976Z,99656.48
2022-11-15T16:40:34.001Z,99642.55
2022-11-15T16:48:59.564Z,99636.40
2022-11-15T16:57:22.605Z,99634.81
2022-11-15T17:05:45.821Z,99639.58
2022-11-15T17:14:09.150Z,99637.38
2022-11-15T17:22:33.179Z,99636.67
2022-11-15T17:30:56.269Z,99626.28
2022-11-15T17:39:21.920Z,99618.59
2022-11-15T17:47:46.837Z,99615.81
2022-11-15T17:56:14.604Z,99611.67
2022-11-15T18:04:37.684Z,99599.80
2022-11-15T18:13:00.908Z,99593.14
2022-11-15T18:21:27.013Z,99595.94
2022-11-15T18:29:50.135Z,99586.52
2022-11-15T18:38:13.229Z,99582.29
2022-11-15T18:46:36.390Z,99584.00
2022-11-15T18:54:59.556Z,99594.05
2022-11-15T19:03:23.586Z,99582.29
2022-11-15T19:12:09.952Z,99581.96
2022-11-15T19:20:35.930Z,99580.31
2022-11-15T19:29:01.138Z,99584.02
2022-11-15T19:37:24.219Z,99580.02
2022-11-15T19:46:02.472Z,99579.23
2022-11-15T19:54:32.880Z,99574.75
2022-11-15T20:02:57.431Z,99567.34
2022-11-15T20:11:21.092Z,99551.15
2022-11-15T20:19:44.935Z,99552.52
2022-11-15T20:28:11.299Z,99547.27
2022-11-15T20:36:34.510Z,99546.25
2022-11-15T20:44:57.653Z,99534.65
2022-11-15T20:53:20.787Z,99550.30
2022-11-15T21:01:44.023Z,99538.80
2022-11-15T21:10:25.996Z,99522.19
2022-11-15T21:18:49.147Z,99515.36
2022-11-15T21:27:12.813Z,99512.52
2022-11-15T21:35:36.777Z,99516.13
2022-11-15T21:44:01.563Z,99517.05
2022-11-15T21:52:24.750Z,99506.51
